Time;durP1;ratioP1;P1;durP2;ratioP2;P2;SDS_P1;SDS_P2;PMS_P1;PMS_P2;Temp;Humidity;BMP_temperature;BMP_pressure;BME280_temperature;BME280_humidity;BME280_pressure;Samples;Min_cycle;Max_cycle;Signal;HPM_P1;HPM_P2
2023/03/20 00:00:45;;;;;;;;;;;;;;;11.53;48.56;99951.12;4402813;32;34148;-76
2023/03/20 00:03:13;;;;;;;;;;;;;;;11.80;48.09;99940.13;4395830;32;34843;-77
2023/03/20 00:05:40;;;;;;;;;;;;;;;12.05;47.19;99936.84;4411914;32;34148;-78
2023/03/20 00:08:08;;;;;;;;;;;;;;;11.97;47.21;99939.13;4416473;32;33864;-79
2023/03/20 00:10:37;;;;;;;;;;;;;;;11.43;48.60;99941.13;4387550;32;33151;-77
2023/03/20 00:13:05;;;;;;;;;;;;;;;11.54;48.53;99937.31;4381701;32;33568;-77
2023/03/20 00:15:36;;;;;;;;;;;;;;;11.73;48.11;99928.59;4385212;32;33754;-76
2023/03/20 00:18:21;;;;;;;;;;;;;;;11.74;47.86;99935.59;4404257;32;33690;-81
2023/03/20 00:20:49;;;;;;;;;;;;;;;11.90;48.25;99936.22;4409822;32;33182;-78
2023/03/20 00:23:17;;;;;;;;;;;;;;;12.49;47.02;99949.88;4407923;32;34220;-76
2023/03/20 00:25:44;;;;;;;;;;;;;;;12.32;48.54;99942.31;4403815;32;34197;-76
2023/03/20 00:28:44;;;;;;;;;;;;;;;12.34;48.16;99943.25;4379734;32;34109;-77
2023/03/20 00:31:18;;;;;;;;;;;;;;;11.67;48.90;99948.22;4314931;33;32933;-78
2023/03/20 00:33:45;;;;;;;;;;;;;;;11.29;50.95;99955.22;4329920;32;34942;-77
2023/03/20 00:36:13;;;;;;;;;;;;;;;11.05;51.76;99945.53;4397240;32;33912;-78
2023/03/20 00:38:40;;;;;;;;;;;;;;;11.29;50.95;99945.72;4394299;32;32806;-79
2023/03/20 00:41:27;;;;;;;;;;;;;;;11.13;51.50;99941.56;4413418;32;34218;-77
2023/03/20 00:44:14;;;;;;;;;;;;;;;11.29;51.16;99944.84;4401873;32;35590;-79
2023/03/20 00:46:42;;;;;;;;;;;;;;;11.66;50.99;99943.84;4406895;32;34172;-76
2023/03/20 00:49:10;;;;;;;;;;;;;;;11.80;51.13;99950.50;4378326;32;34624;-78
2023/03/20 00:51:38;;;;;;;;;;;;;;;11.29;52.69;99934.47;4382600;32;33346;-78
2023/03/20 00:54:12;;;;;;;;;;;;;;;11.56;51.81;99935.66;4386974;32;33972;-76
2023/03/20 00:56:41;;;;;;;;;;;;;;;11.09;52.09;99939.66;4408063;32;33759;-79
2023/03/20 00:59:11;;;;;;;;;;;;;;;10.91;53.28;99938.81;4421711;32;34170;-78
2023/03/20 01:01:38;;;;;;;;;;;;;;;10.38;55.85;99953.66;4405037;32;33508;-79
2023/03/20 01:04:10;;;;;;;;;;;;;;;10.94;54.02;99941.56;4402764;32;34231;-80
2023/03/20 01:06:37;;;;;;;;;;;;;;;11.15;53.54;99942.53;4393389;32;33095;-77
2023/03/20 01:09:05;;;;;;;;;;;;;;;11.31;53.84;99938.91;4397112;32;34201;-75
2023/03/20 01:11:32;;;;;;;;;;;;;;;10.94;54.84;99946.75;4385246;32;32316;-81
2023/03/20 01:13:59;;;;;;;;;;;;;;;10.67;56.09;99951.56;4391585;32;34286;-75
2023/03/20 01:16:28;;;;;;;;;;;;;;;9.94;58.43;99953.22;4398718;32;34032;-81
2023/03/20 01:18:56;;;;;;;;;;;;;;;9.97;58.25;99945.63;4400459;32;34522;-78
2023/03/20 01:21:23;;;;;;;;;;;;;;;10.28;57.64;99947.09;4405040;32;33609;-78
2023/03/20 01:23:50;;;;;;;;;;;;;;;10.54;57.06;99948.37;4409686;32;34313;-76
2023/03/20 01:26:23;;;;;;;;;;;;;;;9.55;59.31;99941.75;4395530;32;34894;-77
2023/03/20 01:28:50;;;;;;;;;;;;;;;9.53;59.29;99935.62;4377608;32;34262;-76
2023/03/20 01:31:18;;;;;;;;;;;;;;;9.50;58.71;99928.56;4377280;32;33093;-78
2023/03/20 01:33:45;;;;;;;;;;;;;;;9.22;58.81;99926.28;4387735;32;35498;-80
2023/03/20 01:36:13;;;;;;;;;;;;;;;9.78;56.85;99923.09;4376077;32;34045;-78
2023/03/20 01:38:41;;;;;;;;;;;;;;;9.62;57.79;99931.81;4401939;32;34720;-80
2023/03/20 01:41:15;;;;;;;;;;;;;;;9.38;58.84;99931.44;4422534;32;33421;-79
2023/03/20 01:43:44;;;;;;;;;;;;;;;9.41;58.23;99926.44;4440025;32;34240;-79
2023/03/20 01:46:17;;;;;;;;;;;;;;;9.37;59.11;99923.63;4438898;32;34833;-75
2023/03/20 01:48:48;;;;;;;;;;;;;;;9.12;59.13;99927.50;4425247;32;34032;-79
2023/03/20 01:51:20;;;;;;;;;;;;;;;9.06;59.06;99924.59;4448901;32;33226;-80
2023/03/20 01:53:52;;;;;;;;;;;;;;;8.97;59.92;99927.56;4454256;32;33951;-81
2023/03/20 01:56:19;;;;;;;;;;;;;;;8.68;60.73;99933.78;4440227;32;33949;-76
2023/03/20 01:58:48;;;;;;;;;;;;;;;8.72;60.78;99938.28;4440375;32;34344;-80
2023/03/20 02:01:16;;;;;;;;;;;;;;;9.25;59.57;99924.75;4437664;32;32768;-79
2023/03/20 02:03:45;;;;;;;;;;;;;;;9.98;57.10;99915.44;4440554;32;34715;-76
2023/03/20 02:06:12;;;;;;;;;;;;;;;10.24;56.52;99924.47;4440278;32;35035;-76
2023/03/20 02:08:44;;;;;;;;;;;;;;;10.90;54.66;99916.34;4454226;32;34046;-76
2023/03/20 02:11:12;;;;;;;;;;;;;;;11.10;53.56;99917.22;4428754;32;32837;-79
2023/03/20 02:13:39;;;;;;;;;;;;;;;11.31;52.87;99918.16;4454101;32;33911;-78
2023/03/20 02:16:09;;;;;;;;;;;;;;;11.10;52.40;99912.91;4454085;32;34225;-77
2023/03/20 02:18:39;;;;;;;;;;;;;;;11.08;52.61;99914.56;4440544;32;34188;-76
2023/03/20 02:21:25;;;;;;;;;;;;;;;10.39;54.33;99920.06;4440264;32;34035;-80
2023/03/20 02:23:56;;;;;;;;;;;;;;;9.90;56.02;99911.59;4454246;32;33874;-80
2023/03/20 02:26:25;;;;;;;;;;;;;;;9.88;56.28;99914.09;4439959;32;34705;-79
2023/03/20 02:29:08;;;;;;;;;;;;;;;9.54;57.52;99907.25;4454026;32;34656;-79
2023/03/20 02:31:57;;;;;;;;;;;;;;;8.87;59.92;99908.94;4440415;32;34015;-78
2023/03/20 02:34:28;;;;;;;;;;;;;;;8.99;60.05;99909.56;4440197;32;34492;-77
2023/03/20 02:37:16;;;;;;;;;;;;;;;8.99;60.43;99907.88;4453229;32;33922;-78
2023/03/20 02:39:44;;;;;;;;;;;;;;;9.04;59.32;99902.97;4427073;32;34348;-79
2023/03/20 02:42:30;;;;;;;;;;;;;;;9.32;58.40;99899.22;4453855;32;34184;-76
2023/03/20 02:45:07;;;;;;;;;;;;;;;9.18;59.08;99896.81;4420417;32;34319;-74
2023/03/20 02:47:37;;;;;;;;;;;;;;;9.05;59.66;99894.41;4447056;32;34066;-79
2023/03/20 02:50:16;;;;;;;;;;;;;;;9.83;57.45;99893.19;4426119;32;34921;-79
2023/03/20 02:52:55;;;;;;;;;;;;;;;9.16;58.84;99888.09;4453160;32;34132;-80
2023/03/20 02:55:26;;;;;;;;;;;;;;;8.31;61.47;99903.31;4453734;32;34206;-78
2023/03/20 02:58:01;;;;;;;;;;;;;;;8.24;63.04;99894.34;4454046;32;34290;-79
2023/03/20 03:00:34;;;;;;;;;;;;;;;7.76;65.68;99893.34;4429835;32;33401;-78
2023/03/20 03:03:05;;;;;;;;;;;;;;;7.41;67.48;99899.94;4427136;32;31664;-82
2023/03/20 03:05:37;;;;;;;;;;;;;;;7.48;68.26;99902.06;4454168;32;34270;-77
2023/03/20 03:08:05;;;;;;;;;;;;;;;7.53;67.75;99899.75;4439991;32;34778;-80
2023/03/20 03:10:37;;;;;;;;;;;;;;;7.51;67.33;99901.34;4440051;32;34244;-78
2023/03/20 03:13:06;;;;;;;;;;;;;;;7.53;67.02;99911.75;4440313;32;33500;-78
2023/03/20 03:15:35;;;;;;;;;;;;;;;7.80;64.98;99912.47;4440210;32;33618;-75
2023/03/20 03:18:04;;;;;;;;;;;;;;;7.50;65.15;99909.91;4412527;32;34835;-74
2023/03/20 03:20:39;;;;;;;;;;;;;;;7.18;67.23;99919.19;4401888;32;33522;-81
2023/03/20 03:23:23;;;;;;;;;;;;;;;7.03;66.69;99920.81;4419913;32;33221;-78
2023/03/20 03:25:50;;;;;;;;;;;;;;;6.98;67.06;99922.25;4439332;32;34858;-81
2023/03/20 03:28:18;;;;;;;;;;;;;;;6.88;67.24;99919.09;4413309;32;34741;-76
2023/03/20 03:30:45;;;;;;;;;;;;;;;7.00;66.14;99920.66;4453790;32;34530;-80
2023/03/20 03:33:14;;;;;;;;;;;;;;;7.02;65.69;99919.94;4440178;32;33978;-76
2023/03/20 03:35:41;;;;;;;;;;;;;;;7.23;64.84;99922.94;4453685;32;34871;-80
2023/03/20 03:38:21;;;;;;;;;;;;;;;7.24;63.84;99917.00;4452239;32;34003;-81
2023/03/20 03:40:52;;;;;;;;;;;;;;;7.94;61.56;99921.91;4396024;32;34264;-79
2023/03/20 03:43:22;;;;;;;;;;;;;;;8.82;58.71;99912.13;4389368;32;33323;-77
2023/03/20 03:46:03;;;;;;;;;;;;;;;8.99;58.61;99917.31;4378998;32;33096;-76
2023/03/20 03:48:35;;;;;;;;;;;;;;;9.39;57.50;99922.00;4381081;32;33508;-77
2023/03/20 03:51:07;;;;;;;;;;;;;;;9.25;57.79;99919.59;4384342;32;34743;-77
2023/03/20 03:53:37;;;;;;;;;;;;;;;8.60;59.34;99927.31;4409563;32;33408;-76
2023/03/20 03:56:07;;;;;;;;;;;;;;;7.65;63.13;99936.56;4447246;32;34256;-81
2023/03/20 03:58:36;;;;;;;;;;;;;;;7.66;63.79;99932.31;4390377;32;34609;-78
2023/03/20 04:01:04;;;;;;;;;;;;;;;7.07;66.40;99943.44;4391804;32;34169;-78
2023/03/20 04:03:34;;;;;;;;;;;;;;;7.67;64.11;99940.13;4425419;32;34205;-76
2023/03/20 04:06:01;;;;;;;;;;;;;;;7.05;65.87;99942.41;4413950;32;34620;-77
2023/03/20 04:08:29;;;;;;;;;;;;;;;7.18;64.75;99942.34;4390957;32;34798;-81
2023/03/20 04:10:58;;;;;;;;;;;;;;;7.39;63.54;99929.00;4442966;32;34204;-79
2023/03/20 04:13:25;;;;;;;;;;;;;;;7.58;62.30;99939.59;4398101;32;34040;-74
2023/03/20 04:15:53;;;;;;;;;;;;;;;7.49;63.34;99939.03;4420208;32;34701;-75
2023/03/20 04:18:20;;;;;;;;;;;;;;;7.66;62.75;99945.19;4397720;32;34250;-78
2023/03/20 04:20:48;;;;;;;;;;;;;;;7.65;62.67;99952.03;4420833;32;33610;-76
2023/03/20 04:23:15;;;;;;;;;;;;;;;7.55;63.00;99949.75;4446875;32;33033;-75
2023/03/20 04:25:43;;;;;;;;;;;;;;;7.14;64.26;99948.13;4375793;32;34829;-81
2023/03/20 04:28:10;;;;;;;;;;;;;;;7.78;62.50;99950.16;4436258;32;34598;-77
2023/03/20 04:30:38;;;;;;;;;;;;;;;8.15;61.54;99960.03;4450784;32;33707;-79
2023/03/20 04:33:07;;;;;;;;;;;;;;;9.03;58.53;99947.69;4406827;32;33477;-79
2023/03/20 04:35:35;;;;;;;;;;;;;;;8.28;60.49;99952.19;4443941;32;34896;-79
2023/03/20 04:38:03;;;;;;;;;;;;;;;7.55;62.31;99949.75;4421704;32;34649;-79
2023/03/20 04:40:31;;;;;;;;;;;;;;;7.49;62.02;99954.50;4440326;32;34469;-75
2023/03/20 04:42:58;;;;;;;;;;;;;;;6.98;64.03;99959.19;4382859;32;31681;-77
2023/03/20 04:45:25;;;;;;;;;;;;;;;6.79;64.68;99959.72;4402659;32;34885;-80
2023/03/20 04:47:53;;;;;;;;;;;;;;;6.72;65.12;99954.09;4413334;32;34005;-76
2023/03/20 04:50:20;;;;;;;;;;;;;;;6.59;65.63;99942.19;4383478;32;35106;-79
2023/03/20 04:52:49;;;;;;;;;;;;;;;6.46;66.23;99951.66;4411264;32;33580;-76
2023/03/20 04:55:17;;;;;;;;;;;;;;;6.31;67.13;99945.56;4464598;32;34112;-80
2023/03/20 04:57:44;;;;;;;;;;;;;;;6.27;67.80;99953.88;4430626;32;33370;-79
2023/03/20 05:00:11;;;;;;;;;;;;;;;6.16;67.89;99949.72;4410168;32;33706;-75
2023/03/20 05:02:39;;;;;;;;;;;;;;;6.28;67.25;99953.09;4454586;32;33698;-82
2023/03/20 05:05:06;;;;;;;;;;;;;;;6.19;67.16;99949.91;4466269;32;33953;-78
2023/03/20 05:07:34;;;;;;;;;;;;;;;6.07;67.74;99956.03;4421908;32;34500;-77
2023/03/20 05:10:03;;;;;;;;;;;;;;;6.34;66.11;99955.16;4433538;32;33873;-79
2023/03/20 05:12:31;;;;;;;;;;;;;;;6.20;65.87;99952.59;4468771;32;33452;-78
2023/03/20 05:14:58;;;;;;;;;;;;;;;6.19;65.99;99950.81;4467046;32;34121;-76
2023/03/20 05:17:26;;;;;;;;;;;;;;;6.99;63.28;99960.06;4432335;32;34063;-79
2023/03/20 05:19:53;;;;;;;;;;;;;;;6.71;63.96;99968.66;4405457;32;33799;-76
2023/03/20 05:22:22;;;;;;;;;;;;;;;6.85;63.71;99970.41;4402661;32;33247;-81
2023/03/20 05:24:50;;;;;;;;;;;;;;;6.74;65.51;99974.03;4426926;32;32560;-77
2023/03/20 05:27:21;;;;;;;;;;;;;;;6.68;64.87;99978.75;4420155;32;33988;-82
2023/03/20 05:29:49;;;;;;;;;;;;;;;6.86;63.95;99979.94;4449256;32;34127;-75
2023/03/20 05:32:16;;;;;;;;;;;;;;;6.61;64.64;99981.75;4437303;32;32789;-77
2023/03/20 05:34:45;;;;;;;;;;;;;;;6.70;64.34;99987.47;4456972;32;34206;-81
2023/03/20 05:37:13;;;;;;;;;;;;;;;6.75;64.33;99975.78;4408357;32;33916;-77
2023/03/20 05:39:41;;;;;;;;;;;;;;;6.69;64.29;99980.56;4420909;32;35029;-78
2023/03/20 05:42:10;;;;;;;;;;;;;;;7.18;62.62;99981.00;4418046;32;33431;-79
2023/03/20 05:44:38;;;;;;;;;;;;;;;6.93;63.18;99982.88;4399714;32;34035;-79
2023/03/20 05:47:06;;;;;;;;;;;;;;;7.48;61.49;99983.66;4419099;32;33299;-77
2023/03/20 05:49:34;;;;;;;;;;;;;;;7.69;60.76;99984.06;4390176;32;33818;-78
2023/03/20 05:52:04;;;;;;;;;;;;;;;7.79;60.59;99990.66;4393238;32;33259;-77
2023/03/20 05:54:32;;;;;;;;;;;;;;;8.04;59.71;99996.44;4389945;32;34289;-76
2023/03/20 05:57:00;;;;;;;;;;;;;;;8.07;59.89;99998.28;4439636;32;33563;-80
2023/03/20 05:59:28;;;;;;;;;;;;;;;7.99;59.60;99995.25;4392649;32;33904;-81
2023/03/20 06:01:58;;;;;;;;;;;;;;;8.26;59.10;99995.06;4380662;32;32697;-80
2023/03/20 06:04:26;;;;;;;;;;;;;;;8.20;59.83;100005.06;4374208;32;33863;-81
2023/03/20 06:06:56;;;;;;;;;;;;;;;8.37;59.69;100004.31;4382331;32;33175;-81
2023/03/20 06:09:24;;;;;;;;;;;;;;;7.96;60.45;100005.41;4410877;32;33691;-79
2023/03/20 06:11:51;;;;;;;;;;;;;;;7.87;61.29;100007.44;4388060;32;33429;-77
2023/03/20 06:14:19;;;;;;;;;;;;;;;7.68;61.28;100014.09;4383591;32;34492;-81
2023/03/20 06:16:48;;;;;;;;;;;;;;;7.86;60.33;100015.97;4385174;32;32780;-80
2023/03/20 06:19:15;;;;;;;;;;;;;;;8.22;59.65;100012.06;4388237;32;34055;-81
2023/03/20 06:21:43;;;;;;;;;;;;;;;8.30;61.60;100009.94;4384647;32;33147;-78
2023/03/20 06:24:10;;;;;;;;;;;;;;;8.30;61.31;100007.34;4387121;32;34092;-79
2023/03/20 06:26:38;;;;;;;;;;;;;;;8.26;63.06;100007.97;4386862;32;34102;-80
2023/03/20 06:29:06;;;;;;;;;;;;;;;8.85;60.32;100009.59;4384788;32;34384;-82
2023/03/20 06:31:34;;;;;;;;;;;;;;;9.03;58.64;100009.69;4386210;32;32801;-84
2023/03/20 06:34:02;;;;;;;;;;;;;;;9.02;58.58;100015.66;4383225;32;34108;-80
2023/03/20 06:36:30;;;;;;;;;;;;;;;9.21;58.18;100010.69;4384444;32;33573;-77
2023/03/20 06:38:57;;;;;;;;;;;;;;;9.50;55.90;100013.91;4427972;32;34111;-77
2023/03/20 06:41:26;;;;;;;;;;;;;;;9.16;56.45;100006.97;4450611;32;33284;-79
2023/03/20 06:44:02;;;;;;;;;;;;;;;9.33;56.25;100015.62;4450173;32;34087;-77
2023/03/20 06:46:33;;;;;;;;;;;;;;;9.98;54.93;100003.41;4450621;32;34017;-80
2023/03/20 06:49:01;;;;;;;;;;;;;;;10.71;53.02;100011.34;4449141;32;33875;-78
2023/03/20 06:51:28;;;;;;;;;;;;;;;10.62;53.58;100003.13;4437209;32;31714;-78
2023/03/20 06:53:56;;;;;;;;;;;;;;;10.27;53.47;100006.56;4435155;32;34836;-80
2023/03/20 06:56:24;;;;;;;;;;;;;;;10.28;54.02;100011.84;4449816;32;33902;-75
2023/03/20 06:58:51;;;;;;;;;;;;;;;10.61;53.49;100003.97;4446068;32;34983;-76
2023/03/20 07:01:19;;;;;;;;;;;;;;;10.46;53.40;100011.00;4448567;32;33321;-80
2023/03/20 07:03:46;;;;;;;;;;;;;;;9.87;55.02;100010.66;4447344;32;33025;-78
2023/03/20 07:06:14;;;;;;;;;;;;;;;10.50;53.11;100020.69;4449299;32;34233;-77
2023/03/20 07:08:45;;;;;;;;;;;;;;;10.58;52.28;100017.63;4449012;32;34990;-80
2023/03/20 07:11:13;;;;;;;;;;;;;;;11.08;50.91;100013.06;4448981;32;34105;-82
2023/03/20 07:13:41;;;;;;;;;;;;;;;11.06;51.51;100014.69;4449682;32;35037;-81
2023/03/20 07:16:14;;;;;;;;;;;;;;;11.25;49.64;100015.56;4424096;32;33642;-82
2023/03/20 07:18:42;;;;;;;;;;;;;;;11.07;49.53;100021.66;4449390;32;34874;-81
2023/03/20 07:21:10;;;;;;;;;;;;;;;11.34;48.65;100016.84;4449134;32;33361;-79
2023/03/20 07:23:40;;;;;;;;;;;;;;;11.55;48.94;100016.94;4449639;32;34384;-78
2023/03/20 07:26:08;;;;;;;;;;;;;;;11.64;48.32;100013.84;4450376;32;34791;-78
2023/03/20 07:28:35;;;;;;;;;;;;;;;11.97;48.00;100017.03;4445635;32;33835;-78
2023/03/20 07:31:04;;;;;;;;;;;;;;;11.72;48.15;100014.16;4457735;32;33681;-82
2023/03/20 07:33:32;;;;;;;;;;;;;;;12.07;47.12;100017.41;4441591;32;34164;-78
2023/03/20 07:36:00;;;;;;;;;;;;;;;12.31;46.04;100012.38;4449840;32;33655;-80
2023/03/20 07:38:27;;;;;;;;;;;;;;;12.24;45.10;100018.12;4417553;32;34102;-76
2023/03/20 07:41:01;;;;;;;;;;;;;;;12.32;43.91;100009.84;4381629;32;33826;-78
2023/03/20 07:43:29;;;;;;;;;;;;;;;12.41;44.90;100018.84;4380599;32;34266;-80
2023/03/20 07:46:05;;;;;;;;;;;;;;;13.08;43.00;100011.09;4384193;32;33924;-74
2023/03/20 07:48:36;;;;;;;;;;;;;;;13.38;43.08;100015.69;4386040;32;34060;-84
2023/03/20 07:51:04;;;;;;;;;;;;;;;13.24;44.00;100012.53;4377436;32;32426;-81
2023/03/20 07:53:31;;;;;;;;;;;;;;;13.42;42.38;100016.69;4380632;32;35070;-80
2023/03/20 07:55:59;;;;;;;;;;;;;;;13.83;41.87;100015.59;4425272;32;34938;-80
2023/03/20 07:58:26;;;;;;;;;;;;;;;13.66;42.78;100008.91;4426610;32;32350;-80
2023/03/20 08:00:55;;;;;;;;;;;;;;;13.56;41.74;100016.37;4385640;32;33418;-77
2023/03/20 08:03:23;;;;;;;;;;;;;;;13.12;41.42;100018.16;4397150;32;34383;-81
2023/03/20 08:05:50;;;;;;;;;;;;;;;13.53;41.67;100020.56;4381674;32;34020;-78
2023/03/20 08:08:17;;;;;;;;;;;;;;;13.64;41.21;100023.56;4379762;32;34172;-80
2023/03/20 08:10:45;;;;;;;;;;;;;;;13.80;40.39;100020.66;4402293;32;33381;-82
2023/03/20 08:13:13;;;;;;;;;;;;;;;14.16;41.35;100022.78;4392946;32;34227;-82
2023/03/20 08:15:40;;;;;;;;;;;;;;;13.76;41.36;100018.78;4425430;32;32271;-80
2023/03/20 08:18:08;;;;;;;;;;;;;;;14.36;39.28;100023.44;4378170;32;34955;-78
2023/03/20 08:20:35;;;;;;;;;;;;;;;14.36;38.84;100024.31;4393879;32;33398;-86
2023/03/20 08:23:02;;;;;;;;;;;;;;;14.59;39.45;100015.53;4378979;32;35028;-79
2023/03/20 08:25:32;;;;;;;;;;;;;;;14.36;40.00;100019.09;4424539;32;34854;-84
2023/03/20 08:28:00;;;;;;;;;;;;;;;14.89;40.72;100021.72;4380199;32;34011;-80
2023/03/20 08:30:27;;;;;;;;;;;;;;;15.18;40.65;100019.06;4423892;32;32708;-77
2023/03/20 08:32:57;;;;;;;;;;;;;;;15.05;41.34;100023.06;4385742;32;34163;-80
2023/03/20 08:35:24;;;;;;;;;;;;;;;15.77;40.82;100026.00;4422095;32;280557;-76
2023/03/20 08:38:12;;;;;;;;;;;;;;;14.94;41.40;100021.84;4434636;32;34195;-81
2023/03/20 08:40:40;;;;;;;;;;;;;;;15.29;41.15;100020.25;4439527;32;33232;-82
2023/03/20 08:43:10;;;;;;;;;;;;;;;15.45;40.86;100024.22;4431237;32;32417;-78
2023/03/20 08:45:38;;;;;;;;;;;;;;;16.03;39.36;100019.75;4433452;32;34424;-83
2023/03/20 08:48:06;;;;;;;;;;;;;;;16.05;38.87;100022.38;4452235;32;34241;-79
2023/03/20 08:50:33;;;;;;;;;;;;;;;15.97;38.94;100030.00;4420608;32;34038;-84
2023/03/20 08:53:01;;;;;;;;;;;;;;;16.01;39.20;100030.97;4430858;32;34067;-82
2023/03/20 08:55:29;;;;;;;;;;;;;;;16.20;38.37;100027.13;4452811;32;34215;-80
2023/03/20 08:57:57;;;;;;;;;;;;;;;15.86;39.37;100034.97;4413461;32;33102;-76
2023/03/20 09:00:24;;;;;;;;;;;;;;;15.80;40.27;100032.19;4451005;32;33417;-80
2023/03/20 09:02:52;;;;;;;;;;;;;;;15.58;41.10;100029.78;4450428;32;34288;-78
2023/03/20 09:05:20;;;;;;;;;;;;;;;14.97;42.12;100045.41;4435884;32;33942;-82
2023/03/20 09:07:48;;;;;;;;;;;;;;;15.65;41.09;100034.34;4445771;32;34718;-84
2023/03/20 09:10:16;;;;;;;;;;;;;;;14.31;41.71;100049.34;4424898;32;30865;-81
2023/03/20 09:12:43;;;;;;;;;;;;;;;14.30;42.25;100047.56;4447392;32;34204;-83
2023/03/20 09:15:11;;;;;;;;;;;;;;;15.06;41.33;100045.66;4438871;32;34785;-80
2023/03/20 09:17:39;;;;;;;;;;;;;;;14.56;41.67;100047.53;4449211;32;33858;-76
2023/03/20 09:20:07;;;;;;;;;;;;;;;15.25;41.03;100036.69;4441644;32;34020;-80
2023/03/20 09:22:34;;;;;;;;;;;;;;;15.19;40.43;100040.84;4428573;32;34008;-75
2023/03/20 09:25:02;;;;;;;;;;;;;;;16.26;39.58;100041.25;4446810;32;33915;-83
2023/03/20 09:27:29;;;;;;;;;;;;;;;15.05;41.53;100043.03;4448067;32;34015;-76
2023/03/20 09:29:57;;;;;;;;;;;;;;;15.81;41.35;100036.56;4444899;32;32754;-78
2023/03/20 09:32:24;;;;;;;;;;;;;;;15.20;41.43;100043.50;4441629;32;33516;-79
2023/03/20 09:34:52;;;;;;;;;;;;;;;16.41;40.07;100037.25;4443291;32;34811;-82
2023/03/20 09:37:19;;;;;;;;;;;;;;;16.64;38.68;100041.28;4431311;32;33693;-80
2023/03/20 09:39:47;;;;;;;;;;;;;;;16.69;39.00;100037.06;4396031;32;33962;-81
2023/03/20 09:42:33;;;;;;;;;;;;;;;15.39;40.40;100029.25;4376665;32;34270;-82
2023/03/20 09:45:16;;;;;;;;;;;;;;;15.20;40.93;100032.16;4424948;32;33942;-78
2023/03/20 09:47:58;;;;;;;;;;;;;;;16.16;41.47;100031.38;4380464;32;34860;-82
2023/03/20 09:50:25;;;;;;;;;;;;;;;16.47;38.36;100029.53;4381964;32;33198;-80
2023/03/20 09:52:57;;;;;;;;;;;;;;;16.21;38.23;100024.56;4399014;32;34206;-84
2023/03/20 09:55:31;;;;;;;;;;;;;;;16.23;38.23;100033.31;4393137;32;34253;-84
2023/03/20 09:58:01;;;;;;;;;;;;;;;17.04;36.26;100037.03;4377217;32;33460;-78
2023/03/20 10:00:29;;;;;;;;;;;;;;;16.70;36.98;100033.59;4385406;32;33517;-83
2023/03/20 10:02:58;;;;;;;;;;;;;;;15.51;39.39;100034.84;4385386;32;34734;-81
2023/03/20 10:05:27;;;;;;;;;;;;;;;16.48;37.68;100033.94;4396327;32;34900;-79
2023/03/20 10:07:56;;;;;;;;;;;;;;;15.81;39.60;100026.13;4436579;32;34229;-78
2023/03/20 10:10:30;;;;;;;;;;;;;;;15.90;38.17;100031.59;4450766;32;34099;-82
2023/03/20 10:13:30;;;;;;;;;;;;;;;16.62;37.58;100026.44;4445270;32;34224;-80
2023/03/20 10:16:04;;;;;;;;;;;;;;;16.87;37.31;100027.91;4353315;32;34908;-81
2023/03/20 10:18:34;;;;;;;;;;;;;;;16.15;37.17;100029.63;4377452;32;34911;-82
2023/03/20 10:21:14;;;;;;;;;;;;;;;16.97;36.87;100029.88;4396845;32;32226;-79
2023/03/20 10:23:44;;;;;;;;;;;;;;;16.12;37.76;100024.31;4382174;32;34203;-77
2023/03/20 10:26:13;;;;;;;;;;;;;;;16.65;37.84;100034.31;4382923;32;34207;-76
2023/03/20 10:28:48;;;;;;;;;;;;;;;16.19;38.34;100014.91;4389299;32;33735;-81
2023/03/20 10:31:31;;;;;;;;;;;;;;;16.29;38.67;100020.41;4396874;32;33104;-81
2023/03/20 10:33:58;;;;;;;;;;;;;;;17.09;37.47;100019.72;4383222;32;34159;-78
2023/03/20 10:36:44;;;;;;;;;;;;;;;16.99;37.20;100006.37;4397415;32;34212;-84
2023/03/20 10:39:16;;;;;;;;;;;;;;;16.77;38.26;100015.44;4383924;32;34661;-79
2023/03/20 10:41:46;;;;;;;;;;;;;;;16.50;38.55;100012.22;4396398;32;33301;-82
2023/03/20 10:44:15;;;;;;;;;;;;;;;16.51;37.32;100014.00;4383128;32;33973;-84
2023/03/20 10:46:43;;;;;;;;;;;;;;;16.99;36.59;100012.47;4383672;32;33634;-80
2023/03/20 10:49:11;;;;;;;;;;;;;;;15.95;38.73;100009.94;4382960;32;33900;-84
2023/03/20 10:51:45;;;;;;;;;;;;;;;16.32;37.56;100011.75;4415054;32;33349;-79
2023/03/20 10:54:24;;;;;;;;;;;;;;;16.66;37.15;100013.44;4398426;32;33518;-81
2023/03/20 10:56:51;;;;;;;;;;;;;;;17.08;36.12;100012.69;4385946;32;34704;-82
2023/03/20 10:59:23;;;;;;;;;;;;;;;16.59;37.25;100010.66;4398836;32;34823;-79
2023/03/20 11:01:51;;;;;;;;;;;;;;;16.80;35.79;99999.81;4390327;32;32833;-83
2023/03/20 11:04:18;;;;;;;;;;;;;;;16.77;37.17;100005.88;4383396;32;34013;-77
2023/03/20 11:06:54;;;;;;;;;;;;;;;16.80;36.10;100005.03;4388530;32;34958;-77
2023/03/20 11:09:23;;;;;;;;;;;;;;;16.36;37.08;99991.78;4391845;32;34151;-80
2023/03/20 11:11:51;;;;;;;;;;;;;;;16.47;36.62;100000.78;4383599;32;33731;-81
2023/03/20 11:14:21;;;;;;;;;;;;;;;17.21;35.86;99989.38;4395818;32;34625;-77
2023/03/20 11:16:50;;;;;;;;;;;;;;;16.48;36.45;99992.97;4402674;32;34002;-79
2023/03/20 11:19:18;;;;;;;;;;;;;;;16.87;36.30;99986.94;4377695;32;34534;-76
2023/03/20 11:21:54;;;;;;;;;;;;;;;16.91;36.36;99985.28;4396158;32;33186;-80
2023/03/20 11:24:22;;;;;;;;;;;;;;;16.96;36.82;99980.13;4395028;32;33713;-78
2023/03/20 11:26:49;;;;;;;;;;;;;;;17.14;36.07;99983.16;4439885;32;34927;-83
2023/03/20 11:29:21;;;;;;;;;;;;;;;16.66;36.33;99978.56;4381708;32;34825;-80
2023/03/20 11:31:49;;;;;;;;;;;;;;;16.88;35.84;99980.88;4408111;32;34026;-79
2023/03/20 11:34:16;;;;;;;;;;;;;;;16.97;36.33;99977.53;4445425;32;34423;-84
2023/03/20 11:36:53;;;;;;;;;;;;;;;17.29;35.20;99975.63;4452620;32;34947;-81
2023/03/20 11:39:36;;;;;;;;;;;;;;;17.18;35.54;99971.00;4383547;32;34723;-79
2023/03/20 11:42:18;;;;;;;;;;;;;;;16.61;36.61;99975.88;4459337;32;33751;-83
2023/03/20 11:44:46;;;;;;;;;;;;;;;16.37;37.32;99976.16;4389632;32;33600;-83
2023/03/20 11:47:14;;;;;;;;;;;;;;;16.78;36.76;99978.84;4390831;32;33817;-80
2023/03/20 11:49:48;;;;;;;;;;;;;;;16.57;37.19;99981.84;4376220;32;33771;-81
2023/03/20 11:52:19;;;;;;;;;;;;;;;16.82;36.75;99977.22;4376186;32;33399;-82
2023/03/20 11:54:47;;;;;;;;;;;;;;;16.38;38.14;99977.94;4387385;32;33076;-83
2023/03/20 11:57:26;;;;;;;;;;;;;;;16.55;37.78;99982.66;4400287;32;33792;-80
2023/03/20 11:59:54;;;;;;;;;;;;;;;17.01;36.56;99968.03;4388289;32;33609;-78
2023/03/20 12:02:22;;;;;;;;;;;;;;;16.98;35.99;99968.88;4390683;32;33018;-78
2023/03/20 12:04:50;;;;;;;;;;;;;;;16.75;36.47;99972.69;4376018;32;33568;-83
2023/03/20 12:07:31;;;;;;;;;;;;;;;16.78;36.53;99975.34;4392180;32;32985;-82
2023/03/20 12:10:06;;;;;;;;;;;;;;;16.90;37.25;99975.63;4379713;32;33875;-82
2023/03/20 12:12:56;;;;;;;;;;;;;;;16.38;37.42;99977.94;4400944;32;31655;-79
2023/03/20 12:15:25;;;;;;;;;;;;;;;16.01;37.51;99968.28;4383547;32;33325;-75
2023/03/20 12:17:54;;;;;;;;;;;;;;;17.04;36.21;99963.75;4422992;32;34145;-80
2023/03/20 12:20:21;;;;;;;;;;;;;;;16.90;37.10;99959.94;4388665;32;34335;-80
2023/03/20 12:23:07;;;;;;;;;;;;;;;17.07;36.94;99969.06;4402264;32;33651;-82
2023/03/20 12:25:36;;;;;;;;;;;;;;;16.60;38.13;99954.91;4423940;32;34864;-78
2023/03/20 12:28:16;;;;;;;;;;;;;;;16.62;37.47;99959.31;4373150;32;33822;-81
2023/03/20 12:30:48;;;;;;;;;;;;;;;17.15;35.44;99950.00;4399743;32;33971;-83
2023/03/20 12:33:21;;;;;;;;;;;;;;;16.99;36.10;99954.03;4416694;32;33912;-81
2023/03/20 12:35:48;;;;;;;;;;;;;;;16.68;37.52;99956.81;4376178;32;33728;-78
2023/03/20 12:38:19;;;;;;;;;;;;;;;16.55;36.98;99957.38;4407346;32;33939;-81
2023/03/20 12:40:47;;;;;;;;;;;;;;;16.83;36.25;99958.06;4408447;32;33510;-77
2023/03/20 12:43:15;;;;;;;;;;;;;;;16.58;37.60;99954.84;4389862;32;32914;-80
2023/03/20 12:45:50;;;;;;;;;;;;;;;16.34;37.94;99957.78;4403504;32;34035;-81
2023/03/20 12:48:23;;;;;;;;;;;;;;;16.73;37.32;99953.41;4396647;32;34253;-81
2023/03/20 12:50:53;;;;;;;;;;;;;;;16.22;37.47;99957.47;4403422;32;33600;-81
2023/03/20 12:53:27;;;;;;;;;;;;;;;17.04;36.91;99944.56;4392877;32;33230;-77
2023/03/20 12:56:10;;;;;;;;;;;;;;;16.17;38.21;99946.00;4391833;32;33764;-77
2023/03/20 12:58:37;;;;;;;;;;;;;;;16.61;37.59;99934.03;4422948;32;34032;-79
2023/03/20 13:01:21;;;;;;;;;;;;;;;16.75;37.52;99933.44;4451474;32;33750;-80
2023/03/20 13:04:04;;;;;;;;;;;;;;;16.50;37.57;99927.66;4416188;32;31361;-80